Time;durP1;ratioP1;P1;durP2;ratioP2;P2;SDS_P1;SDS_P2;PMS_P1;PMS_P2;Temp;Humidity;BMP_temperature;BMP_pressure;BME280_temperature;BME280_humidity;BME280_pressure;Samples;Min_cycle;Max_cycle;Signal;HPM_P1;HPM_P2
2023/10/11 00:00:56;;;;;;;43.50;41.03;;;;;;;8.79;100.00;102027.56;4977528;28;20050;-77
2023/10/11 00:03:35;;;;;;;38.20;36.00;;;;;;;8.82;100.00;102027.22;4971635;28;20046;-77
2023/10/11 00:06:05;;;;;;;42.70;40.30;;;;;;;8.93;100.00;102027.75;4971398;28;20437;-77
2023/10/11 00:08:39;;;;;;;42.13;39.72;;;;;;;8.90;100.00;102029.91;4970856;28;20062;-77
2023/10/11 00:11:38;;;;;;;39.88;37.78;;;;;;;8.73;100.00;102034.31;4970645;28;20536;-77
2023/10/11 00:14:06;;;;;;;43.63;41.13;;;;;;;8.85;100.00;102026.91;4968170;28;20046;-77
2023/10/11 00:16:35;;;;;;;40.88;38.47;;;;;;;8.78;100.00;102023.25;4970707;28;20054;-77
2023/10/11 00:19:06;;;;;;;41.75;39.45;;;;;;;8.59;100.00;102029.63;4970667;28;20054;-77
2023/10/11 00:21:40;;;;;;;46.03;43.53;;;;;;;8.53;100.00;102025.81;4970544;28;20074;-77
2023/10/11 00:24:19;;;;;;;44.13;41.63;;;;;;;8.83;100.00;102021.75;4970548;28;20082;-77
2023/10/11 00:26:49;;;;;;;40.25;37.75;;;;;;;8.71;100.00;102028.34;4970617;28;20054;-77
2023/10/11 00:29:17;;;;;;;41.30;38.90;;;;;;;8.99;100.00;102028.94;4971174;28;20047;-77
2023/10/11 00:31:51;;;;;;;43.38;40.78;;;;;;;9.12;100.00;102028.44;4971638;28;20497;-78
2023/10/11 00:34:21;;;;;;;39.80;37.50;;;;;;;8.99;100.00;102034.22;4970173;28;20047;-77
2023/10/11 00:36:51;;;;;;;44.85;42.25;;;;;;;9.08;100.00;102032.41;4970956;28;20061;-77
2023/10/11 00:39:18;;;;;;;41.20;38.95;;;;;;;9.18;100.00;102033.91;4970664;28;20050;-77
2023/10/11 00:41:48;;;;;;;38.15;35.85;;;;;;;9.17;100.00;102023.47;4970967;28;20039;-77
2023/10/11 00:44:36;;;;;;;38.70;36.40;;;;;;;9.03;100.00;102032.06;4971577;28;20137;-78
2023/10/11 00:47:07;;;;;;;35.67;33.67;;;;;;;9.08;100.00;102027.94;4971377;28;20039;-77
2023/10/11 00:49:39;;;;;;;33.85;31.75;;;;;;;9.10;100.00;102030.41;4971139;28;20062;-77
2023/10/11 00:52:08;;;;;;;33.15;31.15;;;;;;;8.74;100.00;102021.91;4970733;28;20107;-77
2023/10/11 00:55:09;;;;;;;32.88;30.90;;;;;;;8.17;100.00;102020.69;4961804;28;20110;-79
2023/10/11 00:57:39;;;;;;;38.92;36.70;;;;;;;7.94;100.00;102024.88;4970324;28;20078;-78
2023/10/11 01:00:12;;;;;;;35.00;32.90;;;;;;;8.15;100.00;102024.47;4970125;28;20098;-77
2023/10/11 01:02:40;;;;;;;36.58;34.38;;;;;;;8.18;100.00;102034.75;4970826;28;20113;-78
2023/10/11 01:05:07;;;;;;;38.17;35.97;;;;;;;8.54;100.00;102037.25;4970950;28;20046;-77
2023/10/11 01:07:44;;;;;;;37.72;35.58;;;;;;;8.74;100.00;102037.81;4970321;28;20047;-77
2023/10/11 01:10:12;;;;;;;41.28;38.97;;;;;;;8.84;100.00;102046.47;4970624;28;20058;-77
2023/10/11 01:12:40;;;;;;;41.75;39.45;;;;;;;8.83;100.00;102042.13;4970503;28;20050;-77
2023/10/11 01:15:11;;;;;;;35.80;33.60;;;;;;;8.81;100.00;102062.69;4970648;28;20561;-77
2023/10/11 01:17:46;;;;;;;36.77;34.57;;;;;;;8.40;100.00;102050.09;4970034;28;20419;-77
2023/10/11 01:20:19;;;;;;;33.50;31.50;;;;;;;7.82;100.00;102063.16;4968433;28;20051;-77
2023/10/11 01:22:48;;;;;;;32.67;30.67;;;;;;;7.11;100.00;102070.16;4967391;28;20055;-77
2023/10/11 01:25:18;;;;;;;35.22;33.13;;;;;;;7.70;100.00;102066.03;4969871;28;20053;-77
2023/10/11 01:27:47;;;;;;;37.17;35.05;;;;;;;7.99;100.00;102059.63;4969902;28;20051;-77
2023/10/11 01:30:15;;;;;;;42.88;40.67;;;;;;;7.66;100.00;102069.16;4972719;28;20043;-77
2023/10/11 01:32:42;;;;;;;38.85;36.65;;;;;;;7.18;100.00;102073.84;4969800;28;20528;-77
2023/10/11 01:35:12;;;;;;;39.83;37.63;;;;;;;7.39;100.00;102078.03;4973472;28;20070;-77
2023/10/11 01:37:43;;;;;;;42.67;40.38;;;;;;;7.32;100.00;102075.97;4973154;28;20443;-77
2023/10/11 01:40:20;;;;;;;40.08;38.03;;;;;;;7.15;100.00;102075.97;4973297;28;20047;-77
2023/10/11 01:42:49;;;;;;;40.95;38.85;;;;;;;7.27;100.00;102087.97;4971466;28;20086;-77
2023/10/11 01:45:17;;;;;;;41.72;39.47;;;;;;;7.13;100.00;102085.84;4973107;28;20058;-77
2023/10/11 01:47:47;;;;;;;41.72;39.53;;;;;;;6.81;100.00;102085.34;4973483;28;20583;-78
2023/10/11 01:50:15;;;;;;;45.92;43.63;;;;;;;6.61;100.00;102089.06;4972902;28;20125;-77
2023/10/11 01:52:48;;;;;;;43.10;40.78;;;;;;;6.52;100.00;102087.31;4973241;28;20047;-78
2023/10/11 01:55:17;;;;;;;43.55;41.05;;;;;;;6.74;100.00;102094.00;4972759;28;20050;-78
2023/10/11 01:57:48;;;;;;;42.30;40.05;;;;;;;6.41;100.00;102090.94;4969123;28;20047;-78
2023/10/11 02:00:17;;;;;;;49.67;47.38;;;;;;;6.79;100.00;102092.59;4972638;28;20105;-76
2023/10/11 02:02:47;;;;;;;50.08;47.78;;;;;;;6.80;100.00;102096.88;4967459;28;20145;-75
2023/10/11 02:05:15;;;;;;;47.80;45.60;;;;;;;6.44;100.00;102095.94;4972973;28;20054;-77
2023/10/11 02:07:42;;;;;;;53.22;50.92;;;;;;;6.91;100.00;102095.88;4972819;28;20047;-77
2023/10/11 02:10:28;;;;;;;53.80;51.58;;;;;;;6.65;100.00;102103.63;4972274;28;20490;-76
2023/10/11 02:12:57;;;;;;;28.75;27.35;;;;;;;6.84;100.00;102100.09;4972904;28;20047;-75
2023/10/11 02:15:28;;;;;;;52.00;49.80;;;;;;;6.48;100.00;102102.63;4972860;28;20106;-77
2023/10/11 02:17:55;;;;;;;53.40;51.00;;;;;;;5.71;100.00;102104.41;4972908;28;20081;-76
2023/10/11 02:20:22;;;;;;;51.97;49.67;;;;;;;6.15;100.00;102101.34;4971538;28;20053;-78
2023/10/11 02:22:51;;;;;;;55.30;52.60;;;;;;;6.23;100.00;102103.25;4972250;28;20430;-77
2023/10/11 02:25:24;;;;;;;54.97;52.47;;;;;;;5.42;100.00;102103.59;4973874;28;20502;-78
2023/10/11 02:27:52;;;;;;;;;;;;;;;5.95;100.00;102097.91;4978619;28;20129;-77
2023/10/11 02:30:22;;;;;;;53.10;50.90;;;;;;;6.06;100.00;102095.09;4970372;28;19929;-77
2023/10/11 02:32:50;;;;;;;55.80;53.50;;;;;;;6.14;100.00;102112.84;4969854;28;20043;-76
2023/10/11 02:35:26;;;;;;;39.38;37.58;;;;;;;5.95;100.00;102104.00;4981986;28;20058;-76
2023/10/11 02:37:55;;;;;;;50.13;47.88;;;;;;;6.43;100.00;102108.31;4972458;28;20057;-76
2023/10/11 02:40:25;;;;;;;55.08;52.70;;;;;;;6.12;100.00;102101.63;4970667;28;20047;-77
2023/10/11 02:42:57;;;;;;;45.25;43.30;;;;;;;6.06;100.00;102110.94;4973183;28;20047;-77
2023/10/11 02:45:24;;;;;;;46.03;43.30;;;;;;;5.34;100.00;102106.91;4972342;28;20109;-76
2023/10/11 02:47:59;;;;;;;43.05;41.10;;;;;;;5.40;100.00;102113.44;4973512;28;20070;-77
2023/10/11 02:50:26;;;;;;;47.28;45.08;;;;;;;6.11;100.00;102103.44;4971708;28;20567;-77
2023/10/11 02:53:05;;;;;;;46.15;44.15;;;;;;;5.88;100.00;102104.69;4973168;28;20502;-77
2023/10/11 02:55:38;;;;;;;44.97;42.97;;;;;;;6.09;100.00;102100.09;4971325;28;20055;-78
2023/10/11 02:58:14;;;;;;;45.00;43.20;;;;;;;5.88;100.00;102091.50;4969094;28;20058;-77
2023/10/11 03:01:05;;;;;;;36.45;34.85;;;;;;;5.92;100.00;102091.06;4972056;28;20178;-75
2023/10/11 03:03:41;;;;;;;36.58;34.80;;;;;;;6.34;100.00;102095.16;4945852;28;20055;-78
2023/10/11 03:06:10;;;;;;;55.50;53.00;;;;;;;6.31;100.00;102092.81;4971533;28;20047;-76
2023/10/11 03:08:37;;;;;;;52.42;50.20;;;;;;;6.22;100.00;102088.41;4971045;28;20126;-76
2023/10/11 03:11:05;;;;;;;55.72;53.42;;;;;;;6.26;100.00;102084.47;4971641;28;20063;-76
2023/10/11 03:13:41;;;;;;;50.08;47.78;;;;;;;6.14;100.00;102083.81;4971159;28;20065;-77
2023/10/11 03:16:11;;;;;;;43.58;41.67;;;;;;;6.21;100.00;102074.38;4970730;28;20078;-76
2023/10/11 03:18:40;;;;;;;40.42;38.63;;;;;;;6.43;100.00;102081.09;4967564;28;20133;-76
2023/10/11 03:21:19;;;;;;;52.08;49.58;;;;;;;6.60;100.00;102082.97;4968818;28;20054;-76
2023/10/11 03:23:47;;;;;;;46.08;44.08;;;;;;;6.55;100.00;102079.94;4971750;28;20433;-76
2023/10/11 03:26:19;;;;;;;41.38;39.47;;;;;;;6.59;100.00;102078.66;4970869;28;20058;-75
2023/10/11 03:28:56;;;;;;;35.50;34.00;;;;;;;6.85;100.00;102072.69;4971313;28;20421;-76
2023/10/11 03:31:54;;;;;;;50.03;47.85;;;;;;;6.10;100.00;102075.38;4972586;28;20121;-79
2023/10/11 03:34:42;;;;;;;45.47;43.17;;;;;;;6.48;100.00;102080.66;4968932;28;20051;-80
2023/10/11 03:37:19;;;;;;;41.58;39.78;;;;;;;6.39;100.00;102083.19;4972745;28;20574;-78
2023/10/11 03:39:55;;;;;;;48.38;46.38;;;;;;;5.27;100.00;102092.63;4972172;28;20055;-78
2023/10/11 03:42:27;;;;;;;43.42;41.53;;;;;;;5.57;100.00;102088.19;4972769;28;20494;-79
2023/10/11 03:48:44;;;;;;;38.30;36.50;;;;;;;5.52;100.00;102083.34;4972450;28;20046;-80
2023/10/11 03:51:21;;;;;;;40.75;38.85;;;;;;;5.66;100.00;102092.66;4953081;28;20070;-78
2023/10/11 03:54:06;;;;;;;49.50;47.20;;;;;;;6.01;100.00;102083.31;4974336;28;20517;-78
2023/10/11 03:56:55;;;;;;;54.42;52.13;;;;;;;6.28;100.00;102083.38;4969211;28;20054;-78
2023/10/11 03:59:24;;;;;;;58.60;55.80;;;;;;;6.55;100.00;102079.94;4963101;28;20129;-78
2023/10/11 04:01:51;;;;;;;60.40;57.60;;;;;;;6.55;100.00;102082.56;4963988;28;20069;-79
2023/10/11 04:04:20;;;;;;;61.05;57.95;;;;;;;6.69;100.00;102083.91;4972956;28;20498;-79
2023/10/11 04:07:13;;;;;;;62.08;59.22;;;;;;;6.68;100.00;102087.50;4972161;28;20058;-79
2023/10/11 04:09:44;;;;;;;53.60;51.20;;;;;;;6.58;100.00;102084.09;4970274;28;20082;-78
2023/10/11 04:12:15;;;;;;;55.10;52.70;;;;;;;6.83;100.00;102087.84;4970947;28;20054;-78
2023/10/11 04:14:52;;;;;;;48.03;45.92;;;;;;;6.22;100.00;102085.75;4970470;28;20058;-77
2023/10/11 04:17:26;;;;;;;43.13;41.13;;;;;;;6.56;100.00;102092.13;4969816;28;20059;-76
2023/10/11 04:20:17;;;;;;;41.67;39.65;;;;;;;6.18;100.00;102090.50;4970545;28;20419;-76
2023/10/11 04:22:51;;;;;;;33.22;31.40;;;;;;;5.82;100.00;102092.06;4970354;28;20245;-75
2023/10/11 04:25:23;;;;;;;32.38;30.58;;;;;;;5.75;100.00;102099.72;4965500;28;20124;-76
2023/10/11 04:27:55;;;;;;;33.67;31.98;;;;;;;5.70;100.00;102099.28;4970166;28;20506;-76
2023/10/11 04:30:27;;;;;;;29.00;27.50;;;;;;;5.27;100.00;102106.63;4970878;28;20074;-77
2023/10/11 04:32:57;;;;;;;27.00;25.40;;;;;;;5.65;100.00;102117.31;4970363;28;20486;-76
2023/10/11 04:35:36;;;;;;;28.00;26.45;;;;;;;5.68;100.00;102122.31;4966543;28;20109;-77
2023/10/11 04:38:04;;;;;;;26.45;24.95;;;;;;;5.64;100.00;102118.31;4970765;28;20575;-78
2023/10/11 04:40:42;;;;;;;23.80;22.50;;;;;;;5.80;100.00;102121.19;4970763;28;20817;-77
2023/10/11 04:43:23;;;;;;;26.95;25.15;;;;;;;5.78;100.00;102135.50;4968177;28;20585;-78
2023/10/11 04:45:59;;;;;;;25.67;24.27;;;;;;;5.94;100.00;102125.25;4966139;28;20078;-77
2023/10/11 04:48:33;;;;;;;24.27;22.77;;;;;;;6.09;100.00;102128.28;4970223;28;20059;-77
2023/10/11 04:51:07;;;;;;;24.77;23.17;;;;;;;6.16;100.00;102126.72;4970332;28;20047;-77
2023/10/11 04:53:54;;;;;;;24.70;23.00;;;;;;;6.17;100.00;102128.38;4970685;28;20051;-78
2023/10/11 04:59:17;;;;;;;24.10;22.60;;;;;;;6.19;100.00;102134.34;4967609;28;20089;-77
2023/10/11 05:02:02;;;;;;;29.02;27.23;;;;;;;6.59;100.00;102136.72;4971333;28;20057;-77
2023/10/11 05:04:32;;;;;;;24.85;23.25;;;;;;;6.43;100.00;102132.06;4974095;28;20145;-78
2023/10/11 05:07:07;;;;;;;23.75;22.25;;;;;;;6.54;100.00;102139.00;4972893;28;20134;-78
2023/10/11 05:09:39;;;;;;;26.38;24.40;;;;;;;7.31;100.00;102139.56;4972885;28;20058;-76
2023/10/11 05:12:12;;;;;;;25.20;23.37;;;;;;;6.76;100.00;102142.22;4973799;28;20086;-76
2023/10/11 05:14:54;;;;;;;27.70;25.45;;;;;;;6.84;100.00;102139.69;4973410;28;20142;-76
2023/10/11 05:17:38;;;;;;;27.95;25.90;;;;;;;7.23;100.00;102136.81;4969775;28;20106;-77
2023/10/11 05:23:04;;;;;;;24.88;23.20;;;;;;;7.53;100.00;102143.56;4973182;28;20078;-77
2023/10/11 05:25:57;;;;;;;26.98;24.90;;;;;;;7.96;100.00;102158.66;4973500;28;20055;-76
2023/10/11 05:28:58;;;;;;;27.23;25.20;;;;;;;8.25;100.00;102168.94;4968552;28;20057;-76
2023/10/11 05:31:34;;;;;;;33.47;30.45;;;;;;;8.46;100.00;102162.50;4965314;28;20057;-76
2023/10/11 05:34:29;;;;;;;48.13;27.30;;;;;;;8.73;100.00;102158.81;4960326;28;20050;-77
2023/10/11 05:50:54;;;;;;;33.70;28.33;;;;;;;9.93;100.00;102191.28;4968831;28;20540;-77
2023/10/11 05:53:24;;;;;;;25.95;24.05;;;;;;;10.41;100.00;102193.09;4970840;28;20093;-78
2023/10/11 05:56:38;;;;;;;28.88;26.65;;;;;;;10.68;100.00;102199.00;4974908;28;20090;-79
2023/10/11 05:59:10;;;;;;;25.50;23.60;;;;;;;17.64;100.00;102186.09;4954095;28;20074;-76
2023/10/11 06:01:37;;;;;;;30.57;27.73;;;;;;;18.93;100.00;102192.53;4970123;28;20483;-76
2023/10/11 06:04:04;;;;;;;38.58;27.60;;;;;;;19.30;99.21;102197.03;4968766;28;20298;-76
2023/10/11 06:06:38;;;;;;;29.00;26.23;;;;;;;19.36;93.71;102202.34;4972361;28;20055;-79
2023/10/11 06:09:07;;;;;;;27.60;25.60;;;;;;;16.97;65.36;102211.63;4973518;28;20589;-76
2023/10/11 06:11:38;;;;;;;30.08;27.67;;;;;;;13.94;95.12;102219.16;4969766;28;20113;-76
2023/10/11 06:14:07;;;;;;;27.95;25.73;;;;;;;13.11;100.00;102223.16;4971689;28;20458;-77
2023/10/11 06:16:38;;;;;;;27.25;25.05;;;;;;;13.17;100.00;102227.75;4972308;28;20043;-79
2023/10/11 06:19:19;;;;;;;27.73;25.50;;;;;;;13.46;100.00;102229.56;4973785;28;20051;-79
2023/10/11 06:21:57;;;;;;;27.23;25.02;;;;;;;13.52;100.00;102233.31;4972263;28;20086;-76
2023/10/11 06:24:24;;;;;;;26.85;24.65;;;;;;;13.38;100.00;102232.34;4972785;28;20474;-78
2023/10/11 06:27:11;;;;;;;26.67;24.50;;;;;;;13.46;100.00;102240.25;4971508;28;20085;-78
2023/10/11 06:29:38;;;;;;;28.23;25.83;;;;;;;13.36;100.00;102241.53;4972361;28;20057;-78
2023/10/11 06:32:11;;;;;;;26.50;24.40;;;;;;;13.39;100.00;102247.31;4973068;28;20090;-79
2023/10/11 06:34:45;;;;;;;27.08;24.88;;;;;;;13.14;100.00;102249.47;4967866;28;20055;-76
2023/10/11 06:37:16;;;;;;;27.48;25.13;;;;;;;13.38;100.00;102248.34;4972240;28;20493;-76
2023/10/11 06:42:33;;;;;;;28.75;26.35;;;;;;;13.56;100.00;102244.44;4971085;28;20046;-76
2023/10/11 06:45:00;;;;;;;29.77;27.17;;;;;;;13.74;100.00;102247.53;4968416;28;20085;-76
2023/10/11 06:47:40;;;;;;;27.95;25.65;;;;;;;13.52;100.00;102254.66;4974727;28;20054;-78
2023/10/11 06:53:28;;;;;;;27.80;25.50;;;;;;;14.52;95.30;102245.75;4974604;28;20466;-79
2023/10/11 06:59:19;;;;;;;27.75;25.35;;;;;;;15.57;85.26;102249.16;4974044;28;20073;-80
2023/10/11 07:05:31;;;;;;;26.63;24.45;;;;;;;16.71;75.09;102253.56;4962071;28;20095;-78
2023/10/11 07:08:05;;;;;;;26.50;24.30;;;;;;;17.40;69.63;102249.47;4963690;28;20137;-77
2023/10/11 07:14:00;;;;;;;27.30;25.00;;;;;;;17.45;63.54;102255.00;4973786;28;20058;-78
2023/10/11 07:17:12;;;;;;;29.25;26.92;;;;;;;17.25;64.50;102254.28;4973909;28;20086;-80
2023/10/11 07:30:16;;;;;;;28.40;26.02;;;;;;;18.38;63.70;102242.81;4974121;28;20114;-79
2023/10/11 07:32:44;;;;;;;29.40;26.90;;;;;;;17.85;63.47;102252.94;4971383;28;20137;-79
2023/10/11 07:35:34;;;;;;;28.52;25.70;;;;;;;18.73;63.71;102252.00;4970545;28;20056;-79
2023/10/11 07:38:20;;;;;;;27.75;25.63;;;;;;;19.40;60.00;102259.31;4966024;28;20047;-79
2023/10/11 07:41:05;;;;;;;27.10;24.88;;;;;;;19.28;61.05;102255.72;4972729;28;20058;-80
2023/10/11 07:43:33;;;;;;;26.20;24.10;;;;;;;19.31;58.22;102249.88;4965991;28;20117;-78
2023/10/11 07:46:24;;;;;;;24.88;22.88;;;;;;;19.44;58.81;102250.53;4964751;28;20042;-80
2023/10/11 07:49:25;;;;;;;25.65;23.65;;;;;;;19.54;60.51;102246.47;4972622;28;20043;-81
2023/10/11 07:52:25;;;;;;;25.05;23.05;;;;;;;19.48;58.76;102247.38;4972680;28;20050;-79
2023/10/11 07:55:26;;;;;;;26.17;24.17;;;;;;;19.63;60.89;102248.59;4972973;28;20133;-79
2023/10/11 07:57:59;;;;;;;25.90;23.80;;;;;;;19.57;59.42;102251.38;4973122;28;20466;-79
2023/10/11 08:04:32;;;;;;;25.70;23.50;;;;;;;19.43;63.27;102243.50;4968280;28;20049;-80
2023/10/11 08:07:21;;;;;;;25.48;23.38;;;;;;;19.52;70.31;102249.41;4956889;28;20054;-81
2023/10/11 08:10:28;;;;;;;26.95;25.05;;;;;;;19.52;63.81;102248.56;4965654;28;20084;-82
2023/10/11 08:12:48;;;;;;;27.17;25.08;;;;;;;19.31;63.81;102248.03;4972247;28;20129;-79
2023/10/11 08:15:51;;;;;;;28.35;26.25;;;;;;;19.50;64.06;102253.38;4972476;28;20091;-80
2023/10/11 08:18:52;;;;;;;27.83;25.88;;;;;;;19.57;68.81;102254.09;4972414;28;20572;-77
2023/10/11 08:21:19;;;;;;;27.13;25.13;;;;;;;19.49;63.84;102249.84;4972284;28;20057;-78
2023/10/11 08:23:53;;;;;;;25.55;23.65;;;;;;;19.34;63.60;102244.88;4972429;28;20443;-78
2023/10/11 08:27:12;;;;;;;25.67;23.67;;;;;;;19.50;65.91;102246.09;4971953;28;20058;-80
2023/10/11 08:29:42;;;;;;;27.20;25.20;;;;;;;20.08;63.02;102247.34;4971935;28;20498;-78
2023/10/11 08:32:12;;;;;;;27.30;25.40;;;;;;;19.57;63.60;102244.13;4971851;28;20057;-80
2023/10/11 08:34:46;;;;;;;26.25;24.35;;;;;;;19.84;64.39;102249.16;4969354;28;20059;-79
2023/10/11 08:37:42;;;;;;;26.80;24.90;;;;;;;20.03;62.79;102233.72;4972708;28;20129;-79
2023/10/11 08:40:34;;;;;;;27.65;25.75;;;;;;;20.64;60.68;102240.59;4968682;28;20141;-79
2023/10/11 08:43:15;;;;;;;27.55;25.65;;;;;;;20.78;62.34;102236.56;4956510;29;20047;-77
2023/10/11 08:45:49;;;;;;;26.38;24.58;;;;;;;20.93;59.45;102241.47;4974058;28;20047;-78
2023/10/11 08:48:18;;;;;;;27.38;25.58;;;;;;;20.92;59.52;102237.13;4975068;28;20058;-78
2023/10/11 08:51:12;;;;;;;27.17;25.17;;;;;;;21.84;57.31;102230.75;4976061;28;20127;-78
2023/10/11 08:53:47;;;;;;;25.38;23.38;;;;;;;21.48;57.00;102230.16;4975480;28;20175;-78
2023/10/11 08:56:37;;;;;;;26.15;24.25;;;;;;;21.59;57.04;102228.44;4970734;28;20086;-77
2023/10/11 08:59:14;;;;;;;31.30;29.10;;;;;;;21.59;55.67;102217.63;4975679;28;20043;-77
2023/10/11 09:01:45;;;;;;;30.60;28.60;;;;;;;21.56;54.59;102218.13;4975347;28;20051;-78
2023/10/11 09:07:39;;;;;;;23.88;21.98;;;;;;;22.31;53.07;102213.41;4957941;28;20062;-78
2023/10/11 09:10:26;;;;;;;;;;;;;;;22.47;52.66;102212.56;4970675;28;20113;-78
2023/10/11 09:12:57;;;;;;;23.65;21.85;;;;;;;22.64;53.54;102216.03;4970421;28;19929;-77
2023/10/11 09:15:42;;;;;;;24.30;22.40;;;;;;;23.09;49.99;102206.06;4975255;28;20051;-77
2023/10/11 09:22:18;;;;;;;26.85;24.75;;;;;;;23.67;47.34;102207.16;4969067;28;20055;-78
2023/10/11 09:25:04;;;;;;;26.08;23.98;;;;;;;24.45;45.20;102207.53;4955804;29;20062;-77
2023/10/11 09:27:50;;;;;;;27.02;24.83;;;;;;;24.80;43.17;102206.03;4970208;28;20050;-79
2023/10/11 09:30:29;;;;;;;26.58;24.58;;;;;;;24.87;43.53;102203.06;4975190;28;20039;-79
2023/10/11 09:33:17;;;;;;;28.20;26.15;;;;;;;24.47;43.71;102207.25;4975231;28;20054;-79
2023/10/11 09:35:50;;;;;;;26.55;24.55;;;;;;;24.77;43.05;102209.28;4973790;28;20434;-79
2023/10/11 09:38:23;;;;;;;25.85;23.95;;;;;;;23.89;45.84;102200.88;4975435;28;20097;-77
2023/10/11 09:40:57;;;;;;;25.02;23.13;;;;;;;25.13;42.26;102206.72;4974851;28;20057;-78
2023/10/11 09:43:27;;;;;;;25.60;23.70;;;;;;;24.59;43.40;102201.59;4974793;28;20087;-78
2023/10/11 09:46:03;;;;;;;27.35;25.35;;;;;;;24.81;44.11;102199.53;4975066;28;20051;-79
2023/10/11 09:49:03;;;;;;;26.55;24.45;;;;;;;25.93;43.35;102184.50;4973502;28;20059;-79
2023/10/11 09:52:15;;;;;;;49.05;28.92;;;;;;;25.22;42.66;102193.44;4974210;28;20525;-79
2023/10/11 10:01:38;;;;;;;26.17;24.08;;;;;;;25.90;41.37;102169.56;4974523;28;20521;-79
2023/10/11 10:04:57;;;;;;;36.25;26.85;;;;;;;26.63;40.99;102171.00;4975027;28;20068;-77
2023/10/11 10:07:45;;;;;;;26.00;24.00;;;;;;;26.12;40.21;102165.69;4966641;28;20058;-79
2023/10/11 10:10:26;;;;;;;27.10;24.90;;;;;;;25.56;41.24;102172.78;4974778;28;20069;-78
2023/10/11 10:13:06;;;;;;;26.02;23.92;;;;;;;26.25;39.96;102165.91;4973109;28;20526;-78
2023/10/11 10:15:52;;;;;;;29.80;27.30;;;;;;;26.40;40.02;102156.06;4961212;28;20071;-79
2023/10/11 10:18:23;;;;;;;27.85;25.75;;;;;;;26.82;38.04;102152.09;4974102;28;20149;-78
2023/10/11 10:21:01;;;;;;;29.50;27.20;;;;;;;27.54;38.82;102144.28;4974124;28;20047;-78
2023/10/11 10:23:40;;;;;;;29.15;27.05;;;;;;;28.27;36.53;102144.09;4974090;28;20074;-78
2023/10/11 10:26:44;;;;;;;28.42;26.13;;;;;;;27.02;39.43;102137.53;4974000;28;20047;-79
2023/10/11 10:29:12;;;;;;;28.70;26.30;;;;;;;26.85;39.23;102141.44;4974036;28;20043;-79
2023/10/11 10:32:07;;;;;;;29.80;27.40;;;;;;;27.37;39.64;102141.94;4973502;28;20054;-79
2023/10/11 10:34:41;;;;;;;28.88;26.77;;;;;;;27.81;37.78;102141.06;4970878;28;20117;-79
2023/10/11 10:40:26;;;;;;;30.67;28.48;;;;;;;25.11;42.52;102146.34;4973553;28;20054;-79
2023/10/11 10:43:27;;;;;;;31.58;29.48;;;;;;;25.13;42.98;102139.56;4963456;28;20051;-78
2023/10/11 10:46:16;;;;;;;26.15;24.35;;;;;;;24.56;45.04;102139.66;4973167;28;20047;-76
2023/10/11 10:48:43;;;;;;;25.60;23.80;;;;;;;24.13;46.08;102141.59;4971086;28;20051;-78
2023/10/11 10:51:19;;;;;;;25.30;23.40;;;;;;;23.86;46.57;102139.81;4973210;28;20113;-78
2023/10/11 10:53:53;;;;;;;26.15;24.25;;;;;;;24.56;45.13;102137.75;4973253;28;20055;-78
2023/10/11 10:56:35;;;;;;;26.80;24.80;;;;;;;23.59;48.50;102133.59;4973068;28;20105;-78
2023/10/11 10:59:11;;;;;;;26.88;24.98;;;;;;;24.89;46.34;102127.53;4971304;28;20802;-78
2023/10/11 11:02:10;;;;;;;26.50;24.50;;;;;;;24.34;47.81;102120.81;4973295;28;20054;-79
2023/10/11 11:04:52;;;;;;;25.58;23.77;;;;;;;23.26;51.11;102121.94;4968157;28;20129;-77
2023/10/11 11:11:19;;;;;;;26.98;24.88;;;;;;;23.63;48.28;102113.00;4973241;28;20085;-77
2023/10/11 11:17:09;;;;;;;26.08;23.98;;;;;;;23.93;49.71;102112.44;4970782;28;20666;-77
2023/10/11 11:19:36;;;;;;;26.17;24.08;;;;;;;22.55;53.74;102116.56;4973026;28;20109;-77
2023/10/11 11:22:39;;;;;;;26.02;24.02;;;;;;;23.92;49.08;102111.63;4973076;28;20078;-79
2023/10/11 11:25:27;;;;;;;25.77;23.67;;;;;;;23.91;48.37;102112.72;4972650;28;20478;-78
2023/10/11 11:28:17;;;;;;;26.95;24.67;;;;;;;23.44;52.44;102116.13;4972985;28;20442;-78
2023/10/11 11:34:35;;;;;;;27.58;24.85;;;;;;;22.90;53.96;102108.00;4970316;28;20054;-79
2023/10/11 11:40:36;;;;;;;27.90;25.80;;;;;;;23.25;50.15;102104.84;4972849;28;20572;-79
2023/10/11 11:43:03;;;;;;;27.67;25.48;;;;;;;23.18;53.96;102098.00;4972230;28;20086;-78
2023/10/11 11:45:57;;;;;;;26.77;24.67;;;;;;;25.27;48.87;102096.38;4972968;28;20053;-78
2023/10/11 11:49:09;;;;;;;27.60;25.33;;;;;;;25.88;44.96;102102.88;4972938;28;20106;-79
2023/10/11 11:51:40;;;;;;;26.52;24.42;;;;;;;25.37;45.64;102098.28;4967709;28;20137;-79
2023/10/11 11:57:51;;;;;;;26.48;24.27;;;;;;;24.34;44.92;102094.47;4970960;28;20038;-77
2023/10/11 12:00:38;;;;;;;26.63;24.45;;;;;;;24.33;46.35;102097.47;4963222;28;20054;-76
2023/10/11 12:06:52;;;;;;;27.10;24.80;;;;;;;26.17;41.97;102092.16;4970684;28;20401;-77
2023/10/11 12:09:21;;;;;;;26.42;24.23;;;;;;;26.66;40.02;102088.72;4972774;28;20480;-78
2023/10/11 12:12:04;;;;;;;29.08;26.88;;;;;;;26.75;39.39;102075.28;4971889;28;20050;-77
2023/10/11 12:14:32;;;;;;;30.00;27.70;;;;;;;27.34;38.67;102079.78;4972180;28;20050;-78
2023/10/11 12:17:11;;;;;;;29.08;26.88;;;;;;;26.19;40.32;102084.53;4972517;28;20477;-79
2023/10/11 12:19:54;;;;;;;26.23;24.13;;;;;;;26.63;40.58;102068.28;4972023;28;20046;-79
2023/10/11 12:22:23;;;;;;;25.45;23.45;;;;;;;27.42;37.63;102067.44;4972534;28;20065;-78
2023/10/11 12:25:07;;;;;;;52.58;24.00;;;;;;;27.90;36.76;102070.22;4972335;28;20051;-79
2023/10/11 12:28:01;;;;;;;25.52;23.42;;;;;;;27.44;36.98;102070.69;4953498;28;20411;-77
2023/10/11 12:33:54;;;;;;;25.90;23.73;;;;;;;28.31;35.80;102065.09;4953125;29;20123;-79
2023/10/11 12:36:28;;;;;;;25.92;23.73;;;;;;;27.95;34.62;102067.44;4962887;28;20134;-78
2023/10/11 12:39:08;;;;;;;26.30;24.20;;;;;;;28.67;34.26;102053.69;4960033;28;20533;-79
2023/10/11 12:41:44;;;;;;;26.15;24.05;;;;;;;28.88;35.08;102062.41;4969715;28;20057;-78
2023/10/11 12:44:12;;;;;;;26.30;24.30;;;;;;;28.27;34.68;102051.22;4971883;28;20051;-79
2023/10/11 12:47:19;;;;;;;39.85;24.58;;;;;;;27.24;36.00;102044.44;4971204;28;20525;-79
2023/10/11 12:49:54;;;;;;;27.25;25.15;;;;;;;28.80;34.77;102052.94;4963915;28;20054;-79
2023/10/11 12:52:30;;;;;;;26.00;23.90;;;;;;;28.48;34.11;102043.59;4971133;28;20065;-79
2023/10/11 12:55:00;;;;;;;27.42;25.45;;;;;;;27.18;35.21;102039.00;4966718;28;20430;-79
2023/10/11 12:58:00;;;;;;;29.50;27.30;;;;;;;28.33;33.94;102045.69;4971353;28;20047;-77
2023/10/11 13:00:31;;;;;;;26.75;24.80;;;;;;;27.49;35.37;102038.72;4971263;28;20047;-79
2023/10/11 13:03:06;;;;;;;28.38;26.42;;;;;;;27.50;35.51;102039.53;4972108;28;20073;-79
2023/10/11 13:05:45;;;;;;;27.50;25.70;;;;;;;26.82;36.47;102035.72;4961552;28;20093;-78
2023/10/11 13:08:15;;;;;;;26.50;24.80;;;;;;;27.20;35.06;102041.44;4971606;28;20078;-77
2023/10/11 13:11:11;;;;;;;26.52;24.83;;;;;;;26.55;35.95;102043.53;4961081;28;20051;-79
2023/10/11 13:13:43;;;;;;;26.33;24.42;;;;;;;26.76;37.06;102027.88;4963025;28;20057;-77
2023/10/11 13:16:38;;;;;;;;;;;;;;;27.28;35.60;102026.38;4971871;28;20054;-77
2023/10/11 13:19:19;;;;;;;39.97;26.02;;;;;;;27.35;34.89;102030.41;4972058;28;19930;-77
2023/10/11 13:25:23;;;;;;;27.67;25.98;;;;;;;27.01;36.16;102027.66;4975275;28;20418;-77
2023/10/11 13:28:33;;;;;;;23.80;22.02;;;;;;;27.29;35.82;102033.44;4975259;28;20105;-77
2023/10/11 13:31:02;;;;;;;25.73;24.05;;;;;;;26.59;36.26;102033.69;4975047;28;20057;-79
2023/10/11 13:33:30;;;;;;;31.17;29.17;;;;;;;26.76;35.89;102025.16;4974936;28;20106;-79
2023/10/11 13:35:58;;;;;;;26.98;25.38;;;;;;;26.53;36.83;102021.22;4972215;28;20054;-77